sensor_id;sensor_type;location;lat;lon;timestamp;P1;durP1;ratioP1;P2;durP2;ratioP2
6549;SDS011;15142;48.888;9.134;2023-05-03T00:00:06;6.60;;;3.10;;
6549;SDS011;15142;48.888;9.134;2023-05-03T00:02:41;4.13;;;3.60;;
6549;SDS011;15142;48.888;9.134;2023-05-03T00:05:11;9.10;;;4.50;;
6549;SDS011;15142;48.888;9.134;2023-05-03T00:07:41;6.93;;;4.57;;
6549;SDS011;15142;48.888;9.134;2023-05-03T00:10:11;4.40;;;3.40;;
6549;SDS011;15142;48.888;9.134;2023-05-03T00:12:41;3.90;;;3.60;;
6549;SDS011;15142;48.888;9.134;2023-05-03T00:15:11;3.97;;;3.33;;
6549;SDS011;15142;48.888;9.134;2023-05-03T00:17:42;4.73;;;3.80;;
6549;SDS011;15142;48.888;9.134;2023-05-03T00:20:11;4.97;;;4.17;;
6549;SDS011;15142;48.888;9.134;2023-05-03T00:22:40;3.70;;;3.40;;
6549;SDS011;15142;48.888;9.134;2023-05-03T00:25:09;5.10;;;3.27;;
6549;SDS011;15142;48.888;9.134;2023-05-03T00:27:39;4.07;;;3.77;;
6549;SDS011;15142;48.888;9.134;2023-05-03T00:30:08;5.20;;;3.43;;
6549;SDS011;15142;48.888;9.134;2023-05-03T00:32:38;5.60;;;3.80;;
6549;SDS011;15142;48.888;9.134;2023-05-03T00:35:09;5.23;;;3.73;;
6549;SDS011;15142;48.888;9.134;2023-05-03T00:37:38;3.77;;;3.00;;
6549;SDS011;15142;48.888;9.134;2023-05-03T00:40:07;7.60;;;4.17;;
6549;SDS011;15142;48.888;9.134;2023-05-03T00:42:37;6.27;;;4.17;;
6549;SDS011;15142;48.888;9.134;2023-05-03T00:45:07;5.27;;;4.20;;
6549;SDS011;15142;48.888;9.134;2023-05-03T00:47:36;5.53;;;4.30;;
6549;SDS011;15142;48.888;9.134;2023-05-03T00:50:06;4.77;;;4.23;;
6549;SDS011;15142;48.888;9.134;2023-05-03T00:52:38;7.53;;;5.20;;
6549;SDS011;15142;48.888;9.134;2023-05-03T00:55:08;6.17;;;4.60;;
6549;SDS011;15142;48.888;9.134;2023-05-03T00:57:37;8.63;;;4.80;;
6549;SDS011;15142;48.888;9.134;2023-05-03T01:00:07;4.40;;;3.73;;
6549;SDS011;15142;48.888;9.134;2023-05-03T01:02:38;7.17;;;3.60;;
6549;SDS011;15142;48.888;9.134;2023-05-03T01:05:09;7.00;;;3.93;;
6549;SDS011;15142;48.888;9.134;2023-05-03T01:07:39;8.07;;;4.13;;
6549;SDS011;15142;48.888;9.134;2023-05-03T01:10:17;6.17;;;4.50;;
6549;SDS011;15142;48.888;9.134;2023-05-03T01:12:54;7.00;;;4.40;;
6549;SDS011;15142;48.888;9.134;2023-05-03T01:15:29;5.50;;;4.57;;
6549;SDS011;15142;48.888;9.134;2023-05-03T01:18:09;4.37;;;3.63;;
6549;SDS011;15142;48.888;9.134;2023-05-03T01:20:46;7.57;;;5.83;;
6549;SDS011;15142;48.888;9.134;2023-05-03T01:23:21;5.33;;;4.30;;
6549;SDS011;15142;48.888;9.134;2023-05-03T01:26:04;8.40;;;4.90;;
6549;SDS011;15142;48.888;9.134;2023-05-03T01:28:42;5.80;;;3.70;;
6549;SDS011;15142;48.888;9.134;2023-05-03T01:31:11;6.97;;;4.67;;
6549;SDS011;15142;48.888;9.134;2023-05-03T01:33:48;7.57;;;4.23;;
6549;SDS011;15142;48.888;9.134;2023-05-03T01:36:25;5.90;;;3.80;;
6549;SDS011;15142;48.888;9.134;2023-05-03T01:38:56;6.90;;;4.30;;
6549;SDS011;15142;48.888;9.134;2023-05-03T01:41:29;7.03;;;5.40;;
6549;SDS011;15142;48.888;9.134;2023-05-03T01:43:59;11.20;;;4.50;;
6549;SDS011;15142;48.888;9.134;2023-05-03T01:46:30;7.20;;;4.20;;
6549;SDS011;15142;48.888;9.134;2023-05-03T01:48:58;7.10;;;5.20;;
6549;SDS011;15142;48.888;9.134;2023-05-03T01:51:28;5.13;;;3.90;;
6549;SDS011;15142;48.888;9.134;2023-05-03T01:53:57;8.27;;;4.70;;
6549;SDS011;15142;48.888;9.134;2023-05-03T01:56:26;8.93;;;4.97;;
6549;SDS011;15142;48.888;9.134;2023-05-03T01:58:57;5.23;;;4.17;;
6549;SDS011;15142;48.888;9.134;2023-05-03T02:01:26;12.73;;;5.23;;
6549;SDS011;15142;48.888;9.134;2023-05-03T02:03:55;8.10;;;5.30;;
6549;SDS011;15142;48.888;9.134;2023-05-03T02:06:24;6.40;;;4.90;;
6549;SDS011;15142;48.888;9.134;2023-05-03T02:08:57;6.27;;;4.63;;
6549;SDS011;15142;48.888;9.134;2023-05-03T02:11:25;8.93;;;5.27;;
6549;SDS011;15142;48.888;9.134;2023-05-03T02:13:57;8.17;;;4.90;;
6549;SDS011;15142;48.888;9.134;2023-05-03T02:16:26;6.30;;;5.33;;
6549;SDS011;15142;48.888;9.134;2023-05-03T02:18:55;7.47;;;5.07;;
6549;SDS011;15142;48.888;9.134;2023-05-03T02:21:25;5.23;;;4.60;;
6549;SDS011;15142;48.888;9.134;2023-05-03T02:23:54;6.90;;;5.67;;
6549;SDS011;15142;48.888;9.134;2023-05-03T02:26:24;6.90;;;4.90;;
6549;SDS011;15142;48.888;9.134;2023-05-03T02:28:56;8.40;;;5.20;;
6549;SDS011;15142;48.888;9.134;2023-05-03T02:31:29;10.43;;;5.23;;
6549;SDS011;15142;48.888;9.134;2023-05-03T02:33:58;6.57;;;4.90;;
6549;SDS011;15142;48.888;9.134;2023-05-03T02:36:26;8.40;;;5.40;;
6549;SDS011;15142;48.888;9.134;2023-05-03T02:38:58;9.30;;;5.40;;
6549;SDS011;15142;48.888;9.134;2023-05-03T02:41:28;5.83;;;4.97;;
6549;SDS011;15142;48.888;9.134;2023-05-03T02:44:00;8.17;;;5.80;;
6549;SDS011;15142;48.888;9.134;2023-05-03T02:46:29;7.60;;;5.10;;
6549;SDS011;15142;48.888;9.134;2023-05-03T02:48:58;9.90;;;5.70;;
6549;SDS011;15142;48.888;9.134;2023-05-03T02:51:28;11.87;;;6.13;;
6549;SDS011;15142;48.888;9.134;2023-05-03T02:53:57;8.83;;;5.80;;
6549;SDS011;15142;48.888;9.134;2023-05-03T02:56:25;11.30;;;5.93;;
6549;SDS011;15142;48.888;9.134;2023-05-03T02:58:54;9.77;;;5.87;;
6549;SDS011;15142;48.888;9.134;2023-05-03T03:01:26;10.37;;;5.20;;
6549;SDS011;15142;48.888;9.134;2023-05-03T03:03:55;8.83;;;5.83;;
6549;SDS011;15142;48.888;9.134;2023-05-03T03:06:24;9.37;;;5.83;;
6549;SDS011;15142;48.888;9.134;2023-05-03T03:08:52;11.47;;;6.03;;
6549;SDS011;15142;48.888;9.134;2023-05-03T03:11:22;7.27;;;5.20;;
6549;SDS011;15142;48.888;9.134;2023-05-03T03:13:52;9.40;;;6.00;;
6549;SDS011;15142;48.888;9.134;2023-05-03T03:16:22;7.20;;;5.80;;
6549;SDS011;15142;48.888;9.134;2023-05-03T03:18:54;8.80;;;5.53;;
6549;SDS011;15142;48.888;9.134;2023-05-03T03:21:23;8.30;;;5.83;;
6549;SDS011;15142;48.888;9.134;2023-05-03T03:23:54;9.33;;;5.90;;
6549;SDS011;15142;48.888;9.134;2023-05-03T03:26:23;10.00;;;7.63;;
6549;SDS011;15142;48.888;9.134;2023-05-03T03:28:52;7.50;;;5.60;;
6549;SDS011;15142;48.888;9.134;2023-05-03T03:31:22;10.80;;;6.57;;
6549;SDS011;15142;48.888;9.134;2023-05-03T03:33:56;8.93;;;5.80;;
6549;SDS011;15142;48.888;9.134;2023-05-03T03:36:27;9.50;;;6.70;;
6549;SDS011;15142;48.888;9.134;2023-05-03T03:38:56;9.33;;;6.77;;
6549;SDS011;15142;48.888;9.134;2023-05-03T03:41:26;10.70;;;6.70;;
6549;SDS011;15142;48.888;9.134;2023-05-03T03:43:56;9.47;;;6.97;;
6549;SDS011;15142;48.888;9.134;2023-05-03T03:46:25;13.90;;;7.20;;
6549;SDS011;15142;48.888;9.134;2023-05-03T03:48:58;10.17;;;6.63;;
6549;SDS011;15142;48.888;9.134;2023-05-03T03:51:28;10.10;;;6.23;;
6549;SDS011;15142;48.888;9.134;2023-05-03T03:53:58;14.63;;;7.37;;
6549;SDS011;15142;48.888;9.134;2023-05-03T03:56:32;10.83;;;6.37;;
6549;SDS011;15142;48.888;9.134;2023-05-03T03:59:01;11.37;;;7.47;;
6549;SDS011;15142;48.888;9.134;2023-05-03T04:01:31;11.40;;;6.47;;
6549;SDS011;15142;48.888;9.134;2023-05-03T04:04:03;18.07;;;8.00;;
6549;SDS011;15142;48.888;9.134;2023-05-03T04:06:32;9.83;;;6.70;;
6549;SDS011;15142;48.888;9.134;2023-05-03T04:09:05;20.97;;;5.93;;
6549;SDS011;15142;48.888;9.134;2023-05-03T04:11:35;16.60;;;6.33;;
6549;SDS011;15142;48.888;9.134;2023-05-03T04:14:06;11.60;;;7.33;;
6549;SDS011;15142;48.888;9.134;2023-05-03T04:16:34;12.17;;;6.40;;
6549;SDS011;15142;48.888;9.134;2023-05-03T04:19:07;9.70;;;6.30;;
6549;SDS011;15142;48.888;9.134;2023-05-03T04:21:38;12.00;;;7.00;;
6549;SDS011;15142;48.888;9.134;2023-05-03T04:24:08;14.63;;;6.90;;
6549;SDS011;15142;48.888;9.134;2023-05-03T04:26:38;13.40;;;6.70;;
6549;SDS011;15142;48.888;9.134;2023-05-03T04:29:15;16.90;;;6.13;;
6549;SDS011;15142;48.888;9.134;2023-05-03T04:31:45;13.27;;;7.43;;
6549;SDS011;15142;48.888;9.134;2023-05-03T04:34:18;15.10;;;8.90;;
6549;SDS011;15142;48.888;9.134;2023-05-03T04:36:50;12.53;;;7.50;;
6549;SDS011;15142;48.888;9.134;2023-05-03T04:39:19;10.10;;;6.53;;
6549;SDS011;15142;48.888;9.134;2023-05-03T04:41:48;10.53;;;6.83;;
6549;SDS011;15142;48.888;9.134;2023-05-03T04:44:18;21.27;;;10.03;;
6549;SDS011;15142;48.888;9.134;2023-05-03T04:46:48;15.17;;;8.37;;
6549;SDS011;15142;48.888;9.134;2023-05-03T04:49:20;11.63;;;8.67;;
6549;SDS011;15142;48.888;9.134;2023-05-03T04:51:48;14.57;;;8.63;;
6549;SDS011;15142;48.888;9.134;2023-05-03T04:54:18;14.80;;;8.50;;
6549;SDS011;15142;48.888;9.134;2023-05-03T04:56:47;14.57;;;8.20;;
6549;SDS011;15142;48.888;9.134;2023-05-03T04:59:17;15.43;;;7.97;;
6549;SDS011;15142;48.888;9.134;2023-05-03T05:01:47;12.60;;;7.20;;
6549;SDS011;15142;48.888;9.134;2023-05-03T05:04:16;15.37;;;8.10;;
6549;SDS011;15142;48.888;9.134;2023-05-03T05:06:52;14.83;;;7.07;;
6549;SDS011;15142;48.888;9.134;2023-05-03T05:09:26;15.50;;;7.33;;
6549;SDS011;15142;48.888;9.134;2023-05-03T05:11:58;18.83;;;8.93;;
6549;SDS011;15142;48.888;9.134;2023-05-03T05:14:34;18.37;;;8.80;;
6549;SDS011;15142;48.888;9.134;2023-05-03T05:17:04;15.30;;;7.30;;
6549;SDS011;15142;48.888;9.134;2023-05-03T05:19:33;15.27;;;9.30;;
6549;SDS011;15142;48.888;9.134;2023-05-03T05:22:05;18.00;;;7.93;;
6549;SDS011;15142;48.888;9.134;2023-05-03T05:24:41;12.70;;;7.20;;
6549;SDS011;15142;48.888;9.134;2023-05-03T05:27:12;12.00;;;8.70;;
6549;SDS011;15142;48.888;9.134;2023-05-03T05:29:41;20.07;;;8.87;;
6549;SDS011;15142;48.888;9.134;2023-05-03T05:32:10;12.83;;;7.77;;
6549;SDS011;15142;48.888;9.134;2023-05-03T05:34:40;16.70;;;10.90;;
6549;SDS011;15142;48.888;9.134;2023-05-03T05:37:13;14.33;;;9.10;;
6549;SDS011;15142;48.888;9.134;2023-05-03T05:39:42;16.13;;;8.60;;
6549;SDS011;15142;48.888;9.134;2023-05-03T05:42:12;21.40;;;9.10;;
6549;SDS011;15142;48.888;9.134;2023-05-03T05:44:40;17.00;;;9.03;;
6549;SDS011;15142;48.888;9.134;2023-05-03T05:47:09;14.43;;;7.77;;
6549;SDS011;15142;48.888;9.134;2023-05-03T05:49:39;10.87;;;7.90;;
6549;SDS011;15142;48.888;9.134;2023-05-03T05:52:13;11.73;;;7.50;;
6549;SDS011;15142;48.888;9.134;2023-05-03T05:54:42;16.67;;;7.70;;
6549;SDS011;15142;48.888;9.134;2023-05-03T05:57:11;13.50;;;7.70;;
6549;SDS011;15142;48.888;9.134;2023-05-03T05:59:40;18.27;;;8.93;;
6549;SDS011;15142;48.888;9.134;2023-05-03T06:02:15;20.90;;;9.00;;
6549;SDS011;15142;48.888;9.134;2023-05-03T06:04:48;13.40;;;8.37;;
6549;SDS011;15142;48.888;9.134;2023-05-03T06:07:19;16.73;;;7.60;;
6549;SDS011;15142;48.888;9.134;2023-05-03T06:09:49;13.43;;;8.83;;
6549;SDS011;15142;48.888;9.134;2023-05-03T06:12:18;13.77;;;8.30;;
6549;SDS011;15142;48.888;9.134;2023-05-03T06:14:46;16.67;;;9.90;;
6549;SDS011;15142;48.888;9.134;2023-05-03T06:17:16;14.57;;;8.27;;
6549;SDS011;15142;48.888;9.134;2023-05-03T06:19:47;13.03;;;7.47;;
6549;SDS011;15142;48.888;9.134;2023-05-03T06:22:24;20.73;;;8.23;;
6549;SDS011;15142;48.888;9.134;2023-05-03T06:24:53;17.13;;;8.83;;
6549;SDS011;15142;48.888;9.134;2023-05-03T06:27:23;22.37;;;8.30;;
6549;SDS011;15142;48.888;9.134;2023-05-03T06:29:52;12.80;;;8.10;;
6549;SDS011;15142;48.888;9.134;2023-05-03T06:32:22;13.60;;;7.97;;
6549;SDS011;15142;48.888;9.134;2023-05-03T06:34:51;13.03;;;6.93;;
6549;SDS011;15142;48.888;9.134;2023-05-03T06:37:21;11.10;;;7.93;;
6549;SDS011;15142;48.888;9.134;2023-05-03T06:39:53;15.30;;;8.33;;
6549;SDS011;15142;48.888;9.134;2023-05-03T06:42:22;19.93;;;9.13;;
6549;SDS011;15142;48.888;9.134;2023-05-03T06:45:04;14.13;;;6.90;;
6549;SDS011;15142;48.888;9.134;2023-05-03T06:47:36;17.23;;;9.07;;
6549;SDS011;15142;48.888;9.134;2023-05-03T06:50:07;13.47;;;10.17;;
6549;SDS011;15142;48.888;9.134;2023-05-03T06:52:39;26.17;;;8.90;;
6549;SDS011;15142;48.888;9.134;2023-05-03T06:55:08;12.50;;;7.97;;
6549;SDS011;15142;48.888;9.134;2023-05-03T06:57:37;13.50;;;8.10;;
6549;SDS011;15142;48.888;9.134;2023-05-03T07:00:07;11.33;;;7.83;;
6549;SDS011;15142;48.888;9.134;2023-05-03T07:02:37;13.53;;;7.63;;
6549;SDS011;15142;48.888;9.134;2023-05-03T07:05:06;11.93;;;7.57;;
6549;SDS011;15142;48.888;9.134;2023-05-03T07:07:35;13.53;;;7.60;;
6549;SDS011;15142;48.888;9.134;2023-05-03T07:10:07;21.77;;;9.37;;
6549;SDS011;15142;48.888;9.134;2023-05-03T07:12:36;20.00;;;9.67;;
6549;SDS011;15142;48.888;9.134;2023-05-03T07:15:05;11.80;;;7.40;;
6549;SDS011;15142;48.888;9.134;2023-05-03T07:17:35;12.23;;;8.17;;
6549;SDS011;15142;48.888;9.134;2023-05-03T07:20:03;17.00;;;8.87;;
6549;SDS011;15142;48.888;9.134;2023-05-03T07:22:33;11.40;;;7.40;;
6549;SDS011;15142;48.888;9.134;2023-05-03T07:25:02;13.50;;;8.07;;
6549;SDS011;15142;48.888;9.134;2023-05-03T07:27:35;8.50;;;6.00;;
6549;SDS011;15142;48.888;9.134;2023-05-03T07:30:04;15.30;;;7.93;;
6549;SDS011;15142;48.888;9.134;2023-05-03T07:32:34;13.87;;;8.37;;
6549;SDS011;15142;48.888;9.134;2023-05-03T07:35:03;12.70;;;8.43;;
6549;SDS011;15142;48.888;9.134;2023-05-03T07:37:33;12.10;;;8.20;;
6549;SDS011;15142;48.888;9.134;2023-05-03T07:40:03;14.53;;;7.77;;
6549;SDS011;15142;48.888;9.134;2023-05-03T07:42:36;16.53;;;7.83;;
6549;SDS011;15142;48.888;9.134;2023-05-03T07:45:06;13.10;;;8.50;;
6549;SDS011;15142;48.888;9.134;2023-05-03T07:47:36;10.93;;;6.97;;
6549;SDS011;15142;48.888;9.134;2023-05-03T07:50:05;15.17;;;9.07;;
6549;SDS011;15142;48.888;9.134;2023-05-03T07:52:34;11.33;;;7.63;;
6549;SDS011;15142;48.888;9.134;2023-05-03T07:55:04;11.87;;;7.43;;
6549;SDS011;15142;48.888;9.134;2023-05-03T07:57:37;14.87;;;7.10;;
6549;SDS011;15142;48.888;9.134;2023-05-03T08:00:06;13.93;;;7.17;;
6549;SDS011;15142;48.888;9.134;2023-05-03T08:02:40;12.13;;;8.37;;
6549;SDS011;15142;48.888;9.134;2023-05-03T08:05:10;12.37;;;7.23;;
6549;SDS011;15142;48.888;9.134;2023-05-03T08:07:40;11.27;;;8.23;;
6549;SDS011;15142;48.888;9.134;2023-05-03T08:10:09;18.13;;;8.53;;
6549;SDS011;15142;48.888;9.134;2023-05-03T08:12:42;12.80;;;7.80;;
6549;SDS011;15142;48.888;9.134;2023-05-03T08:15:11;13.40;;;7.53;;
6549;SDS011;15142;48.888;9.134;2023-05-03T08:17:40;8.73;;;6.80;;
6549;SDS011;15142;48.888;9.134;2023-05-03T08:20:10;12.20;;;7.00;;
6549;SDS011;15142;48.888;9.134;2023-05-03T08:22:40;12.70;;;8.70;;
6549;SDS011;15142;48.888;9.134;2023-05-03T08:25:11;13.63;;;7.63;;
6549;SDS011;15142;48.888;9.134;2023-05-03T08:27:43;11.60;;;7.37;;
6549;SDS011;15142;48.888;9.134;2023-05-03T08:30:13;10.40;;;6.80;;
6549;SDS011;15142;48.888;9.134;2023-05-03T08:32:42;8.17;;;7.33;;
6549;SDS011;15142;48.888;9.134;2023-05-03T08:35:11;14.10;;;7.17;;
6549;SDS011;15142;48.888;9.134;2023-05-03T08:37:40;8.90;;;6.67;;
6549;SDS011;15142;48.888;9.134;2023-05-03T08:40:10;12.83;;;7.70;;
6549;SDS011;15142;48.888;9.134;2023-05-03T08:42:44;13.20;;;8.90;;
6549;SDS011;15142;48.888;9.134;2023-05-03T08:45:15;11.80;;;7.27;;
6549;SDS011;15142;48.888;9.134;2023-05-03T08:47:44;13.23;;;8.07;;
6549;SDS011;15142;48.888;9.134;2023-05-03T08:50:14;10.87;;;7.60;;
6549;SDS011;15142;48.888;9.134;2023-05-03T08:52:43;11.60;;;7.90;;
6549;SDS011;15142;48.888;9.134;2023-05-03T08:55:12;8.70;;;7.20;;
6549;SDS011;15142;48.888;9.134;2023-05-03T08:57:44;12.63;;;9.60;;
6549;SDS011;15142;48.888;9.134;2023-05-03T09:00:13;11.43;;;7.20;;
6549;SDS011;15142;48.888;9.134;2023-05-03T09:02:44;11.50;;;7.13;;
6549;SDS011;15142;48.888;9.134;2023-05-03T09:05:33;10.03;;;7.53;;
6549;SDS011;15142;48.888;9.134;2023-05-03T09:08:04;11.30;;;7.77;;
6549;SDS011;15142;48.888;9.134;2023-05-03T09:10:36;13.17;;;7.80;;
6549;SDS011;15142;48.888;9.134;2023-05-03T09:13:09;10.40;;;7.03;;
6549;SDS011;15142;48.888;9.134;2023-05-03T09:15:38;11.60;;;7.90;;
6549;SDS011;15142;48.888;9.134;2023-05-03T09:18:10;10.17;;;6.27;;
6549;SDS011;15142;48.888;9.134;2023-05-03T09:20:43;11.20;;;6.67;;
6549;SDS011;15142;48.888;9.134;2023-05-03T09:23:17;11.17;;;6.33;;
6549;SDS011;15142;48.888;9.134;2023-05-03T09:25:47;6.43;;;5.37;;
6549;SDS011;15142;48.888;9.134;2023-05-03T09:28:19;13.40;;;7.30;;
6549;SDS011;15142;48.888;9.134;2023-05-03T09:30:51;11.20;;;7.10;;
6549;SDS011;15142;48.888;9.134;2023-05-03T09:33:32;9.20;;;6.17;;
6549;SDS011;15142;48.888;9.134;2023-05-03T09:36:01;11.07;;;7.03;;
6549;SDS011;15142;48.888;9.134;2023-05-03T09:38:32;10.87;;;7.00;;
6549;SDS011;15142;48.888;9.134;2023-05-03T09:41:02;8.60;;;6.70;;
6549;SDS011;15142;48.888;9.134;2023-05-03T09:43:36;9.40;;;7.63;;
6549;SDS011;15142;48.888;9.134;2023-05-03T09:46:16;7.30;;;6.10;;
6549;SDS011;15142;48.888;9.134;2023-05-03T09:48:46;8.43;;;6.23;;
6549;SDS011;15142;48.888;9.134;2023-05-03T09:51:16;8.17;;;7.20;;
6549;SDS011;15142;48.888;9.134;2023-05-03T09:53:45;9.63;;;8.20;;
6549;SDS011;15142;48.888;9.134;2023-05-03T09:56:15;7.27;;;6.50;;
6549;SDS011;15142;48.888;9.134;2023-05-03T09:58:47;14.17;;;7.73;;
6549;SDS011;15142;48.888;9.134;2023-05-03T10:01:16;8.10;;;6.13;;
6549;SDS011;15142;48.888;9.134;2023-05-03T10:03:48;7.43;;;5.80;;
6549;SDS011;15142;48.888;9.134;2023-05-03T10:06:23;11.70;;;5.63;;
6549;SDS011;15142;48.888;9.134;2023-05-03T10:08:58;11.03;;;6.10;;
6549;SDS011;15142;48.888;9.134;2023-05-03T10:11:32;8.13;;;6.03;;
6549;SDS011;15142;48.888;9.134;2023-05-03T10:14:05;8.10;;;5.80;;
6549;SDS011;15142;48.888;9.134;2023-05-03T10:16:35;5.67;;;4.70;;
6549;SDS011;15142;48.888;9.134;2023-05-03T10:19:07;6.67;;;5.67;;
6549;SDS011;15142;48.888;9.134;2023-05-03T10:21:43;10.90;;;7.40;;
6549;SDS011;15142;48.888;9.134;2023-05-03T10:24:21;10.20;;;5.60;;
6549;SDS011;15142;48.888;9.134;2023-05-03T10:26:50;7.40;;;5.67;;
6549;SDS011;15142;48.888;9.134;2023-05-03T10:32:28;8.97;;;4.40;;
6549;SDS011;15142;48.888;9.134;2023-05-03T10:35:06;11.93;;;6.50;;
6549;SDS011;15142;48.888;9.134;2023-05-03T10:37:36;14.33;;;5.77;;
6549;SDS011;15142;48.888;9.134;2023-05-03T10:40:12;7.13;;;5.30;;
6549;SDS011;15142;48.888;9.134;2023-05-03T10:42:42;9.87;;;6.37;;
6549;SDS011;15142;48.888;9.134;2023-05-03T10:45:23;8.70;;;7.20;;
6549;SDS011;15142;48.888;9.134;2023-05-03T10:50:45;12.60;;;5.13;;
6549;SDS011;15142;48.888;9.134;2023-05-03T10:53:33;8.77;;;4.90;;
6549;SDS011;15142;48.888;9.134;2023-05-03T10:56:05;11.43;;;4.07;;
6549;SDS011;15142;48.888;9.134;2023-05-03T10:58:35;6.47;;;4.17;;
6549;SDS011;15142;48.888;9.134;2023-05-03T11:01:09;5.47;;;4.87;;
6549;SDS011;15142;48.888;9.134;2023-05-03T11:03:43;5.57;;;4.37;;
6549;SDS011;15142;48.888;9.134;2023-05-03T11:06:25;5.57;;;4.00;;
6549;SDS011;15142;48.888;9.134;2023-05-03T11:08:56;7.37;;;4.03;;
6549;SDS011;15142;48.888;9.134;2023-05-03T11:11:26;7.17;;;4.20;;
6549;SDS011;15142;48.888;9.134;2023-05-03T11:13:55;8.13;;;5.33;;
6549;SDS011;15142;48.888;9.134;2023-05-03T11:16:27;8.10;;;4.30;;
6549;SDS011;15142;48.888;9.134;2023-05-03T11:18:56;6.33;;;3.80;;
6549;SDS011;15142;48.888;9.134;2023-05-03T11:21:26;7.30;;;4.23;;
6549;SDS011;15142;48.888;9.134;2023-05-03T11:23:56;6.90;;;3.83;;
6549;SDS011;15142;48.888;9.134;2023-05-03T11:26:26;5.60;;;4.53;;
6549;SDS011;15142;48.888;9.134;2023-05-03T11:28:55;5.37;;;4.30;;
6549;SDS011;15142;48.888;9.134;2023-05-03T11:31:24;5.63;;;4.20;;
6549;SDS011;15142;48.888;9.134;2023-05-03T11:33:55;7.30;;;4.60;;
6549;SDS011;15142;48.888;9.134;2023-05-03T11:36:24;5.20;;;4.27;;
6549;SDS011;15142;48.888;9.134;2023-05-03T11:38:55;5.13;;;4.17;;
6549;SDS011;15142;48.888;9.134;2023-05-03T11:41:24;7.63;;;3.93;;
6549;SDS011;15142;48.888;9.134;2023-05-03T11:43:52;4.30;;;3.53;;
6549;SDS011;15142;48.888;9.134;2023-05-03T11:46:22;5.40;;;3.50;;
6549;SDS011;15142;48.888;9.134;2023-05-03T11:48:56;5.23;;;4.30;;
6549;SDS011;15142;48.888;9.134;2023-05-03T11:51:25;5.10;;;3.83;;
6549;SDS011;15142;48.888;9.134;2023-05-03T11:53:54;5.10;;;3.37;;
6549;SDS011;15142;48.888;9.134;2023-05-03T11:56:23;3.90;;;3.50;;
6549;SDS011;15142;48.888;9.134;2023-05-03T11:58:53;8.50;;;3.70;;
6549;SDS011;15142;48.888;9.134;2023-05-03T12:01:24;5.57;;;3.87;;
6549;SDS011;15142;48.888;9.134;2023-05-03T12:03:58;5.80;;;3.40;;
6549;SDS011;15142;48.888;9.134;2023-05-03T12:06:28;5.93;;;3.53;;
6549;SDS011;15142;48.888;9.134;2023-05-03T12:08:58;4.27;;;2.90;;
6549;SDS011;15142;48.888;9.134;2023-05-03T12:11:28;3.50;;;3.20;;
6549;SDS011;15142;48.888;9.134;2023-05-03T12:13:57;3.80;;;3.27;;
6549;SDS011;15142;48.888;9.134;2023-05-03T12:16:28;3.47;;;3.17;;
6549;SDS011;15142;48.888;9.134;2023-05-03T12:19:24;3.47;;;2.80;;
6549;SDS011;15142;48.888;9.134;2023-05-03T12:21:53;4.17;;;3.23;;
6549;SDS011;15142;48.888;9.134;2023-05-03T12:24:23;3.00;;;2.57;;
6549;SDS011;15142;48.888;9.134;2023-05-03T12:26:51;2.90;;;2.30;;
6549;SDS011;15142;48.888;9.134;2023-05-03T12:29:20;7.43;;;4.13;;
6549;SDS011;15142;48.888;9.134;2023-05-03T12:31:50;4.10;;;3.50;;
6549;SDS011;15142;48.888;9.134;2023-05-03T12:34:19;3.73;;;3.37;;
6549;SDS011;15142;48.888;9.134;2023-05-03T12:36:50;3.03;;;2.80;;
6549;SDS011;15142;48.888;9.134;2023-05-03T12:39:19;4.77;;;2.83;;
6549;SDS011;15142;48.888;9.134;2023-05-03T12:41:48;3.43;;;3.13;;
6549;SDS011;15142;48.888;9.134;2023-05-03T12:44:16;6.47;;;3.63;;
6549;SDS011;15142;48.888;9.134;2023-05-03T12:46:46;6.27;;;3.50;;
6549;SDS011;15142;48.888;9.134;2023-05-03T12:49:15;4.13;;;2.37;;
6549;SDS011;15142;48.888;9.134;2023-05-03T12:51:44;4.00;;;2.90;;
6549;SDS011;15142;48.888;9.134;2023-05-03T12:54:15;3.70;;;3.20;;
6549;SDS011;15142;48.888;9.134;2023-05-03T12:56:44;2.50;;;2.30;;
6549;SDS011;15142;48.888;9.134;2023-05-03T12:59:13;4.63;;;3.70;;
6549;SDS011;15142;48.888;9.134;2023-05-03T13:01:42;3.60;;;3.30;;
6549;SDS011;15142;48.888;9.134;2023-05-03T13:04:11;4.17;;;2.93;;
6549;SDS011;15142;48.888;9.134;2023-05-03T13:06:39;8.20;;;3.40;;
6549;SDS011;15142;48.888;9.134;2023-05-03T13:09:09;4.87;;;3.37;;
6549;SDS011;15142;48.888;9.134;2023-05-03T13:11:43;3.17;;;2.90;;
6549;SDS011;15142;48.888;9.134;2023-05-03T13:14:14;4.47;;;3.57;;
6549;SDS011;15142;48.888;9.134;2023-05-03T13:16:43;3.30;;;3.00;;
6549;SDS011;15142;48.888;9.134;2023-05-03T13:19:13;2.50;;;2.30;;
6549;SDS011;15142;48.888;9.134;2023-05-03T13:21:42;3.93;;;3.07;;
6549;SDS011;15142;48.888;9.134;2023-05-03T13:24:13;2.43;;;2.30;;
6549;SDS011;15142;48.888;9.134;2023-05-03T13:26:45;3.60;;;3.30;;
6549;SDS011;15142;48.888;9.134;2023-05-03T13:29:14;4.30;;;2.37;;
6549;SDS011;15142;48.888;9.134;2023-05-03T13:31:43;5.67;;;2.63;;
6549;SDS011;15142;48.888;9.134;2023-05-03T13:34:11;4.53;;;2.20;;
6549;SDS011;15142;48.888;9.134;2023-05-03T13:36:40;2.07;;;1.97;;
6549;SDS011;15142;48.888;9.134;2023-05-03T13:39:09;3.20;;;2.33;;
6549;SDS011;15142;48.888;9.134;2023-05-03T13:41:38;4.50;;;2.33;;
6549;SDS011;15142;48.888;9.134;2023-05-03T13:44:10;2.37;;;2.00;;
6549;SDS011;15142;48.888;9.134;2023-05-03T13:46:39;2.90;;;1.90;;
6549;SDS011;15142;48.888;9.134;2023-05-03T13:49:08;2.83;;;1.97;;
6549;SDS011;15142;48.888;9.134;2023-05-03T13:51:37;3.03;;;1.87;;
6549;SDS011;15142;48.888;9.134;2023-05-03T13:54:07;2.20;;;2.00;;
6549;SDS011;15142;48.888;9.134;2023-05-03T13:56:36;3.43;;;2.00;;
6549;SDS011;15142;48.888;9.134;2023-05-03T13:59:06;3.93;;;2.47;;
6549;SDS011;15142;48.888;9.134;2023-05-03T14:01:38;4.93;;;2.83;;
6549;SDS011;15142;48.888;9.134;2023-05-03T14:04:07;4.93;;;2.50;;
6549;SDS011;15142;48.888;9.134;2023-05-03T14:06:37;2.63;;;2.43;;
6549;SDS011;15142;48.888;9.134;2023-05-03T14:09:06;4.07;;;2.87;;
6549;SDS011;15142;48.888;9.134;2023-05-03T14:11:36;1.97;;;1.87;;
6549;SDS011;15142;48.888;9.134;2023-05-03T14:14:08;4.87;;;2.40;;
6549;SDS011;15142;48.888;9.134;2023-05-03T14:16:40;3.70;;;3.20;;
6549;SDS011;15142;48.888;9.134;2023-05-03T14:19:08;3.43;;;2.60;;
6549;SDS011;15142;48.888;9.134;2023-05-03T14:21:39;3.90;;;2.60;;
6549;SDS011;15142;48.888;9.134;2023-05-03T14:24:10;2.77;;;2.50;;
6549;SDS011;15142;48.888;9.134;2023-05-03T14:26:38;2.40;;;2.07;;
6549;SDS011;15142;48.888;9.134;2023-05-03T14:29:07;2.97;;;2.63;;
6549;SDS011;15142;48.888;9.134;2023-05-03T14:31:36;2.17;;;2.00;;
6549;SDS011;15142;48.888;9.134;2023-05-03T14:36:36;6.43;;;2.57;;
6549;SDS011;15142;48.888;9.134;2023-05-03T14:39:08;3.13;;;2.43;;
6549;SDS011;15142;48.888;9.134;2023-05-03T14:41:38;3.20;;;2.80;;
6549;SDS011;15142;48.888;9.134;2023-05-03T14:44:07;2.60;;;2.40;;
6549;SDS011;15142;48.888;9.134;2023-05-03T14:46:36;3.00;;;2.80;;
6549;SDS011;15142;48.888;9.134;2023-05-03T14:49:05;3.03;;;2.60;;
6549;SDS011;15142;48.888;9.134;2023-05-03T14:51:36;3.60;;;3.23;;
6549;SDS011;15142;48.888;9.134;2023-05-03T14:54:05;3.50;;;2.07;;
6549;SDS011;15142;48.888;9.134;2023-05-03T14:56:34;4.57;;;2.60;;
6549;SDS011;15142;48.888;9.134;2023-05-03T14:59:03;3.13;;;2.90;;
6549;SDS011;15142;48.888;9.134;2023-05-03T15:01:32;4.50;;;3.23;;
6549;SDS011;15142;48.888;9.134;2023-05-03T15:04:02;2.53;;;2.33;;
6549;SDS011;15142;48.888;9.134;2023-05-03T15:06:32;2.50;;;2.30;;
6549;SDS011;15142;48.888;9.134;2023-05-03T15:09:06;2.27;;;2.13;;
6549;SDS011;15142;48.888;9.134;2023-05-03T15:11:37;5.93;;;2.33;;
6549;SDS011;15142;48.888;9.134;2023-05-03T15:14:05;5.00;;;2.30;;
6549;SDS011;15142;48.888;9.134;2023-05-03T15:16:34;3.57;;;2.40;;
6549;SDS011;15142;48.888;9.134;2023-05-03T15:19:03;2.33;;;2.10;;
6549;SDS011;15142;48.888;9.134;2023-05-03T15:21:42;3.33;;;1.80;;
6549;SDS011;15142;48.888;9.134;2023-05-03T15:24:14;2.93;;;2.67;;